createdAt,value
2022-09-15T00:01:54.774Z,25.00
2022-09-15T00:06:57.363Z,25.00
2022-09-15T00:11:59.970Z,24.90
2022-09-15T00:17:03.952Z,24.90
2022-09-15T00:22:06.629Z,24.90
2022-09-15T00:27:09.509Z,25.00
2022-09-15T00:32:13.460Z,25.00
2022-09-15T00:37:16.051Z,24.90
2022-09-15T00:42:19.417Z,24.90
2022-09-15T00:47:24.424Z,24.90
2022-09-15T00:52:28.685Z,25.00
2022-09-15T00:57:33.589Z,24.90
2022-09-15T01:02:38.266Z,24.90
2022-09-15T01:07:42.762Z,24.90
2022-09-15T01:12:45.578Z,24.80
2022-09-15T01:17:58.299Z,24.90
2022-09-15T01:23:07.558Z,24.90
2022-09-15T01:28:17.538Z,24.80
2022-09-15T01:33:29.089Z,24.80
2022-09-15T01:38:37.194Z,24.70
2022-09-15T01:43:43.685Z,24.80
2022-09-15T01:48:48.256Z,24.80
2022-09-15T01:53:51.827Z,24.80
2022-09-15T01:58:54.542Z,24.70
2022-09-15T02:04:01.531Z,24.80
2022-09-15T02:09:07.330Z,24.80
2022-09-15T02:14:14.388Z,24.80
2022-09-15T02:19:21.458Z,24.70
2022-09-15T02:24:27.832Z,24.80
2022-09-15T02:29:33.521Z,24.70
2022-09-15T02:34:39.151Z,24.70
2022-09-15T02:39:44.314Z,24.70
2022-09-15T02:44:46.989Z,24.70
2022-09-15T02:49:50.971Z,24.70
2022-09-15T02:54:54.293Z,24.70
2022-09-15T03:00:15.688Z,24.70
2022-09-15T03:05:20.277Z,24.70
2022-09-15T03:10:23.042Z,24.70
2022-09-15T03:15:26.082Z,24.70
2022-09-15T03:20:30.321Z,24.80
2022-09-15T03:25:33.247Z,24.60
2022-09-15T03:30:35.846Z,24.60
2022-09-15T03:35:39.778Z,24.60
2022-09-15T03:40:43.078Z,24.60
2022-09-15T03:45:45.699Z,24.60
2022-09-15T03:50:49.762Z,24.60
2022-09-15T03:55:52.449Z,24.60
2022-09-15T04:00:55.035Z,24.50
2022-09-15T04:05:58.988Z,24.50
2022-09-15T04:11:04.572Z,24.60
2022-09-15T04:16:08.976Z,24.50
2022-09-15T04:21:14.026Z,24.40
2022-09-15T04:26:19.920Z,24.50
2022-09-15T04:31:22.571Z,24.40
2022-09-15T04:36:28.149Z,24.40
2022-09-15T04:41:30.734Z,24.30
2022-09-15T04:46:33.593Z,24.40
2022-09-15T04:51:37.549Z,24.40
2022-09-15T04:56:40.190Z,24.40
2022-09-15T05:01:43.600Z,24.50
2022-09-15T05:06:47.549Z,24.40
2022-09-15T05:11:50.206Z,24.40
2022-09-15T05:16:53.751Z,24.40
2022-09-15T05:21:57.745Z,24.40
2022-09-15T05:27:00.337Z,24.30
2022-09-15T05:32:03.138Z,24.40
2022-09-15T05:37:07.137Z,24.30
2022-09-15T05:42:09.817Z,24.40
2022-09-15T05:47:12.426Z,24.30
2022-09-15T05:52:16.367Z,24.30
2022-09-15T05:57:18.990Z,24.40
2022-09-15T06:02:21.643Z,24.40
2022-09-15T06:07:25.663Z,24.30
2022-09-15T06:12:28.434Z,24.40
2022-09-15T06:17:32.708Z,24.40
2022-09-15T06:22:36.670Z,24.40
2022-09-15T06:27:39.532Z,24.40
2022-09-15T06:32:47.942Z,24.40
2022-09-15T06:37:52.718Z,24.50
2022-09-15T06:42:56.230Z,24.40
2022-09-15T06:48:22.898Z,24.40
2022-09-15T06:53:23.582Z,24.40
2022-09-15T06:58:26.173Z,24.40
2022-09-15T07:03:28.994Z,24.50
2022-09-15T07:08:33.199Z,24.50
2022-09-15T07:13:36.059Z,24.50
2022-09-15T07:18:43.082Z,24.50
2022-09-15T07:23:47.978Z,24.60
2022-09-15T07:28:51.571Z,24.60
2022-09-15T07:33:56.135Z,24.70
2022-09-15T07:39:00.165Z,24.80
2022-09-15T07:44:02.993Z,24.90
2022-09-15T07:49:06.737Z,24.90
2022-09-15T07:54:10.926Z,24.90
2022-09-15T07:59:13.551Z,24.90
2022-09-15T08:04:16.189Z,24.90
2022-09-15T08:09:20.530Z,24.90
2022-09-15T08:14:23.150Z,24.90
2022-09-15T08:19:25.782Z,24.90
2022-09-15T08:24:29.861Z,24.80
2022-09-15T08:29:32.698Z,24.80
2022-09-15T08:34:35.310Z,24.80
2022-09-15T08:39:39.273Z,24.80
2022-09-15T08:44:43.389Z,24.70
2022-09-15T08:49:52.649Z,24.80
2022-09-15T08:54:57.329Z,24.70
2022-09-15T09:00:00.171Z,24.70
2022-09-15T09:05:16.236Z,24.70
2022-09-15T09:10:23.699Z,24.70
2022-09-15T09:15:30.720Z,24.60
2022-09-15T09:20:38.361Z,24.80
2022-09-15T09:25:42.955Z,24.70
2022-09-15T09:30:46.055Z,24.70
2022-09-15T09:35:51.473Z,24.80
2022-09-15T09:40:59.868Z,24.90
2022-09-15T09:46:09.954Z,24.90
2022-09-15T09:51:27.457Z,24.90
2022-09-15T09:56:31.429Z,25.00
2022-09-15T10:01:34.064Z,25.00
2022-09-15T10:06:36.711Z,25.10
2022-09-15T10:11:48.039Z,25.10
2022-09-15T10:16:58.365Z,25.30
2022-09-15T10:22:01.639Z,25.30
2022-09-15T10:27:09.301Z,25.40
2022-09-15T10:32:25.004Z,25.50
2022-09-15T10:37:30.803Z,25.50
2022-09-15T10:42:40.533Z,25.50
2022-09-15T10:47:48.316Z,25.40
2022-09-15T10:53:01.909Z,25.50
2022-09-15T10:58:14.049Z,25.30
2022-09-15T11:03:30.273Z,25.40
2022-09-15T11:08:43.483Z,25.30
2022-09-15T11:13:55.940Z,25.30
2022-09-15T11:19:11.645Z,25.30
2022-09-15T11:24:24.820Z,25.20
2022-09-15T11:29:31.790Z,25.40
2022-09-15T11:34:36.630Z,25.50
2022-09-15T11:39:42.382Z,25.50
2022-09-15T11:44:47.941Z,25.60
2022-09-15T11:49:52.046Z,25.70
2022-09-15T11:54:58.626Z,25.70
2022-09-15T12:00:04.850Z,25.60
2022-09-15T12:05:09.240Z,25.60
2022-09-15T12:10:18.893Z,25.60
2022-09-15T12:15:27.307Z,25.50
2022-09-15T12:20:33.216Z,25.60
2022-09-15T12:25:41.075Z,25.50
2022-09-15T12:30:45.023Z,25.60
2022-09-15T12:35:47.710Z,25.50
2022-09-15T12:40:57.260Z,25.50
2022-09-15T12:46:02.246Z,25.50
2022-09-15T12:51:05.952Z,25.60
2022-09-15T12:56:10.373Z,25.60
2022-09-15T13:01:31.756Z,25.60
2022-09-15T13:06:36.147Z,25.60
2022-09-15T13:11:40.351Z,25.60
2022-09-15T13:16:49.236Z,25.60
2022-09-15T13:21:58.466Z,25.70
2022-09-15T13:27:01.871Z,25.70
2022-09-15T13:32:10.863Z,25.70
2022-09-15T13:42:52.661Z,25.80
2022-09-15T13:48:03.147Z,25.80
2022-09-15T13:53:21.514Z,25.90
2022-09-15T14:03:49.973Z,25.90
2022-09-15T14:08:55.490Z,25.80
2022-09-15T14:13:58.397Z,25.80
2022-09-15T14:19:01.813Z,25.70
2022-09-15T14:24:07.096Z,25.70
2022-09-15T14:29:16.320Z,25.70
2022-09-15T14:34:21.060Z,25.80
2022-09-15T14:39:25.072Z,25.80
2022-09-15T14:50:05.875Z,25.80
2022-09-15T14:55:14.240Z,25.90
2022-09-15T15:00:18.435Z,25.90
2022-09-15T15:05:24.663Z,26.00
2022-09-15T15:10:35.678Z,25.90
2022-09-15T15:15:39.131Z,25.90
2022-09-15T15:20:49.373Z,26.00
2022-09-15T15:25:54.822Z,25.90
2022-09-15T15:31:07.146Z,25.90
2022-09-15T15:36:11.606Z,25.90
2022-09-15T15:41:19.976Z,26.00
2022-09-15T15:46:37.448Z,25.90
2022-09-15T15:51:42.148Z,25.90
2022-09-15T15:56:47.398Z,25.80
2022-09-15T16:01:51.758Z,25.80
2022-09-15T16:06:54.457Z,25.80
2022-09-15T16:11:58.399Z,25.70
2022-09-15T16:17:00.978Z,25.60
2022-09-15T16:22:03.830Z,25.60
2022-09-15T16:27:12.886Z,25.60
2022-09-15T16:32:17.876Z,25.60
2022-09-15T16:37:20.481Z,25.50
2022-09-15T16:42:24.454Z,25.50
2022-09-15T16:47:27.043Z,25.50
2022-09-15T16:52:29.720Z,25.50
2022-09-15T16:57:33.653Z,25.50
2022-09-15T17:02:36.229Z,25.40
2022-09-15T17:07:38.842Z,25.30
2022-09-15T17:12:42.852Z,25.40
2022-09-15T17:17:45.488Z,25.30
2022-09-15T17:22:48.624Z,25.30
2022-09-15T17:27:52.797Z,25.20
2022-09-15T17:33:01.656Z,25.20
2022-09-15T17:38:04.856Z,25.20
2022-09-15T17:43:13.417Z,25.20
2022-09-15T17:48:16.716Z,25.20
2022-09-15T17:53:21.332Z,25.10
2022-09-15T17:58:26.497Z,25.10
2022-09-15T18:03:30.730Z,25.00
2022-09-15T18:08:33.682Z,25.10
2022-09-15T18:13:38.170Z,25.10
2022-09-15T18:18:40.925Z,25.00
2022-09-15T18:23:44.972Z,25.00
2022-09-15T18:28:49.444Z,25.00
2022-09-15T18:33:52.634Z,25.00
2022-09-15T18:38:55.250Z,25.00
2022-09-15T18:44:00.530Z,24.90
2022-09-15T18:49:04.541Z,24.90
2022-09-15T18:54:07.170Z,24.90
2022-09-15T18:59:11.130Z,24.90
2022-09-15T19:04:13.825Z,24.80
2022-09-15T19:09:16.435Z,24.80
2022-09-15T19:14:20.440Z,24.80
2022-09-15T19:19:23.334Z,24.90
2022-09-15T19:24:31.876Z,24.80
2022-09-15T19:29:36.569Z,24.90
2022-09-15T19:34:39.446Z,24.80
2022-09-15T19:39:42.377Z,24.80
2022-09-15T19:44:48.228Z,24.80
2022-09-15T19:49:51.801Z,24.80
2022-09-15T19:54:54.561Z,24.80
2022-09-15T19:59:58.477Z,24.70
2022-09-15T20:05:01.060Z,24.70
2022-09-15T20:10:03.839Z,24.70
2022-09-15T20:15:08.474Z,24.70
2022-09-15T20:20:11.979Z,24.70
2022-09-15T20:25:14.578Z,24.70
2022-09-15T20:30:18.546Z,24.80
2022-09-15T20:35:21.123Z,24.60
2022-09-15T20:40:24.182Z,24.70
2022-09-15T20:45:28.473Z,24.70
2022-09-15T20:50:31.843Z,24.70
2022-09-15T20:55:34.418Z,24.70
2022-09-15T21:00:38.330Z,24.70
2022-09-15T21:05:42.166Z,24.70
2022-09-15T21:10:45.571Z,24.60
2022-09-15T21:15:54.217Z,24.70
2022-09-15T21:20:57.763Z,24.60
2022-09-15T21:26:02.066Z,24.70
2022-09-15T21:31:07.086Z,24.60
2022-09-15T21:36:10.813Z,24.60
2022-09-15T21:41:14.874Z,24.60
2022-09-15T21:46:19.849Z,24.60
2022-09-15T21:51:24.942Z,24.60
2022-09-15T21:56:29.027Z,24.60
2022-09-15T22:01:33.711Z,24.60
2022-09-15T22:06:37.375Z,24.60
2022-09-15T22:11:40.421Z,24.70
2022-09-15T22:16:44.450Z,24.60
2022-09-15T22:21:47.147Z,24.60
2022-09-15T22:26:50.028Z,24.60
2022-09-15T22:31:54.065Z,24.60
2022-09-15T22:36:56.857Z,24.60
2022-09-15T22:41:59.467Z,24.60
2022-09-15T22:47:06.078Z,24.50
2022-09-15T22:52:08.671Z,24.60
2022-09-15T22:57:11.256Z,24.60
2022-09-15T23:02:15.481Z,24.50
2022-09-15T23:07:18.123Z,24.60
2022-09-15T23:12:20.714Z,24.50
2022-09-15T23:17:25.712Z,24.60
2022-09-15T23:22:28.363Z,24.60
2022-09-15T23:27:30.983Z,24.50
2022-09-15T23:32:34.913Z,24.50
2022-09-15T23:37:37.495Z,24.60
2022-09-15T23:42:40.125Z,24.60
2022-09-15T23:47:44.072Z,24.50
2022-09-15T23:52:46.661Z,24.50
2022-09-15T23:57:49.287Z,24.50
